sensor_id;sensor_type;location;lat;lon;timestamp;pressure;altitude;pressure_sealevel;temperature;humidity
25510;BME280;13413;52.336;21.200;2023-03-16T00:00:39;100657.94;;;2.78;61.66
25510;BME280;13413;52.336;21.200;2023-03-16T00:03:31;100657.35;;;2.76;61.80
25510;BME280;13413;52.336;21.200;2023-03-16T00:06:23;100655.78;;;2.83;61.83
25510;BME280;13413;52.336;21.200;2023-03-16T00:09:15;100655.05;;;2.86;61.89
25510;BME280;13413;52.336;21.200;2023-03-16T00:12:09;100656.94;;;2.82;61.83
25510;BME280;13413;52.336;21.200;2023-03-16T00:15:03;100654.45;;;2.85;61.92
25510;BME280;13413;52.336;21.200;2023-03-16T00:17:55;100656.27;;;2.84;61.96
25510;BME280;13413;52.336;21.200;2023-03-16T00:20:50;100656.45;;;2.88;61.88
25510;BME280;13413;52.336;21.200;2023-03-16T00:23:42;100663.20;;;2.87;61.48
25510;BME280;13413;52.336;21.200;2023-03-16T00:26:34;100664.15;;;2.81;61.79
25510;BME280;13413;52.336;21.200;2023-03-16T00:29:26;100668.39;;;2.80;61.79
25510;BME280;13413;52.336;21.200;2023-03-16T00:32:19;100683.27;;;2.71;61.83
25510;BME280;13413;52.336;21.200;2023-03-16T00:35:12;100682.15;;;2.63;61.97
25510;BME280;13413;52.336;21.200;2023-03-16T00:38:04;100687.55;;;2.61;62.06
25510;BME280;13413;52.336;21.200;2023-03-16T00:40:57;100688.21;;;2.57;62.11
25510;BME280;13413;52.336;21.200;2023-03-16T00:43:48;100689.09;;;2.54;62.07
25510;BME280;13413;52.336;21.200;2023-03-16T00:46:40;100688.40;;;2.49;62.22
25510;BME280;13413;52.336;21.200;2023-03-16T00:49:33;100691.46;;;2.42;62.18
25510;BME280;13413;52.336;21.200;2023-03-16T00:52:26;100690.61;;;2.37;62.36
25510;BME280;13413;52.336;21.200;2023-03-16T00:55:18;100691.23;;;2.42;62.61
25510;BME280;13413;52.336;21.200;2023-03-16T00:58:10;100694.02;;;2.45;62.68
25510;BME280;13413;52.336;21.200;2023-03-16T01:01:03;100696.64;;;2.49;62.58
25510;BME280;13413;52.336;21.200;2023-03-16T01:03:55;100695.01;;;2.43;62.31
25510;BME280;13413;52.336;21.200;2023-03-16T01:06:48;100687.70;;;2.38;62.45
25510;BME280;13413;52.336;21.200;2023-03-16T01:09:40;100689.34;;;2.32;62.51
25510;BME280;13413;52.336;21.200;2023-03-16T01:12:34;100691.96;;;2.35;62.92
25510;BME280;13413;52.336;21.200;2023-03-16T01:15:26;100691.61;;;2.38;62.62
25510;BME280;13413;52.336;21.200;2023-03-16T01:18:19;100695.45;;;2.30;62.41
25510;BME280;13413;52.336;21.200;2023-03-16T01:21:12;100698.94;;;2.19;62.65
25510;BME280;13413;52.336;21.200;2023-03-16T01:24:04;100698.20;;;2.07;62.81
25510;BME280;13413;52.336;21.200;2023-03-16T01:26:56;100699.98;;;2.05;63.03
25510;BME280;13413;52.336;21.200;2023-03-16T01:29:49;100698.66;;;2.08;62.86
25510;BME280;13413;52.336;21.200;2023-03-16T01:32:42;100699.15;;;2.06;62.83
25510;BME280;13413;52.336;21.200;2023-03-16T01:35:33;100704.73;;;2.09;62.98
25510;BME280;13413;52.336;21.200;2023-03-16T01:38:26;100704.48;;;2.03;63.18
25510;BME280;13413;52.336;21.200;2023-03-16T01:41:19;100703.50;;;2.00;63.13
25510;BME280;13413;52.336;21.200;2023-03-16T01:44:13;100705.88;;;2.00;63.11
25510;BME280;13413;52.336;21.200;2023-03-16T01:47:05;100707.78;;;2.05;63.29
25510;BME280;13413;52.336;21.200;2023-03-16T01:49:57;100707.27;;;2.10;63.23
25510;BME280;13413;52.336;21.200;2023-03-16T01:52:49;100710.42;;;2.07;62.86
25510;BME280;13413;52.336;21.200;2023-03-16T01:55:42;100717.48;;;2.06;62.87
25510;BME280;13413;52.336;21.200;2023-03-16T01:58:35;100716.02;;;2.00;62.78
25510;BME280;13413;52.336;21.200;2023-03-16T02:01:28;100720.34;;;2.03;63.54
25510;BME280;13413;52.336;21.200;2023-03-16T02:10:40;100715.23;;;1.89;62.98
25510;BME280;13413;52.336;21.200;2023-03-16T02:13:32;100719.70;;;1.83;63.01
25510;BME280;13413;52.336;21.200;2023-03-16T02:16:25;100723.50;;;1.74;63.15
25510;BME280;13413;52.336;21.200;2023-03-16T02:19:19;100722.90;;;1.70;63.35
25510;BME280;13413;52.336;21.200;2023-03-16T02:22:16;100721.64;;;1.61;63.33
25510;BME280;13413;52.336;21.200;2023-03-16T02:25:08;100730.95;;;1.58;63.72
25510;BME280;13413;52.336;21.200;2023-03-16T02:28:02;100727.04;;;1.54;63.79
25510;BME280;13413;52.336;21.200;2023-03-16T02:30:56;100729.89;;;1.58;63.86
25510;BME280;13413;52.336;21.200;2023-03-16T02:33:48;100734.58;;;1.58;63.64
25510;BME280;13413;52.336;21.200;2023-03-16T02:36:41;100738.02;;;1.54;63.60
25510;BME280;13413;52.336;21.200;2023-03-16T02:39:35;100737.44;;;1.53;63.75
25510;BME280;13413;52.336;21.200;2023-03-16T02:42:27;100738.38;;;1.49;63.52
25510;BME280;13413;52.336;21.200;2023-03-16T02:45:21;100740.24;;;1.50;63.65
25510;BME280;13413;52.336;21.200;2023-03-16T02:48:15;100741.07;;;1.46;63.57
25510;BME280;13413;52.336;21.200;2023-03-16T02:51:09;100736.77;;;1.50;64.06
25510;BME280;13413;52.336;21.200;2023-03-16T02:56:53;100745.52;;;1.47;64.07
25510;BME280;13413;52.336;21.200;2023-03-16T02:59:45;100750.45;;;1.48;63.83
25510;BME280;13413;52.336;21.200;2023-03-16T03:02:37;100750.05;;;1.49;63.74
25510;BME280;13413;52.336;21.200;2023-03-16T03:05:29;100750.32;;;1.43;63.82
25510;BME280;13413;52.336;21.200;2023-03-16T03:08:21;100754.14;;;1.38;63.76
25510;BME280;13413;52.336;21.200;2023-03-16T03:11:14;100755.66;;;1.31;63.91
25510;BME280;13413;52.336;21.200;2023-03-16T03:14:07;100758.45;;;1.31;64.10
25510;BME280;13413;52.336;21.200;2023-03-16T03:16:58;100767.05;;;1.35;64.15
25510;BME280;13413;52.336;21.200;2023-03-16T03:19:50;100771.20;;;1.36;63.72
25510;BME280;13413;52.336;21.200;2023-03-16T03:22:43;100778.20;;;1.30;64.08
25510;BME280;13413;52.336;21.200;2023-03-16T03:25:36;100777.11;;;1.36;64.17
25510;BME280;13413;52.336;21.200;2023-03-16T03:28:27;100787.20;;;1.33;63.95
25510;BME280;13413;52.336;21.200;2023-03-16T03:31:20;100788.45;;;1.30;64.01
25510;BME280;13413;52.336;21.200;2023-03-16T03:34:12;100787.62;;;1.27;63.78
25510;BME280;13413;52.336;21.200;2023-03-16T03:37:04;100792.46;;;1.25;63.92
25510;BME280;13413;52.336;21.200;2023-03-16T03:39:56;100790.27;;;1.22;64.04
25510;BME280;13413;52.336;21.200;2023-03-16T03:42:48;100795.13;;;1.22;64.04
25510;BME280;13413;52.336;21.200;2023-03-16T03:45:40;100794.56;;;1.20;63.94
25510;BME280;13413;52.336;21.200;2023-03-16T03:48:33;100798.46;;;1.14;63.87
25510;BME280;13413;52.336;21.200;2023-03-16T03:51:24;100803.63;;;1.10;63.77
25510;BME280;13413;52.336;21.200;2023-03-16T03:54:16;100806.15;;;1.12;64.14
25510;BME280;13413;52.336;21.200;2023-03-16T03:57:08;100810.08;;;1.13;64.09
25510;BME280;13413;52.336;21.200;2023-03-16T04:00:00;100810.27;;;1.10;64.14
25510;BME280;13413;52.336;21.200;2023-03-16T04:02:52;100810.05;;;1.06;64.23
25510;BME280;13413;52.336;21.200;2023-03-16T04:05:44;100812.84;;;1.08;64.41
25510;BME280;13413;52.336;21.200;2023-03-16T04:08:36;100813.35;;;1.16;64.58
25510;BME280;13413;52.336;21.200;2023-03-16T04:11:29;100814.46;;;1.20;64.41
25510;BME280;13413;52.336;21.200;2023-03-16T04:14:20;100815.41;;;1.24;64.76
25510;BME280;13413;52.336;21.200;2023-03-16T04:17:13;100821.16;;;1.26;64.13
25510;BME280;13413;52.336;21.200;2023-03-16T04:20:05;100816.58;;;1.24;64.41
25510;BME280;13413;52.336;21.200;2023-03-16T04:22:57;100820.35;;;1.25;64.32
25510;BME280;13413;52.336;21.200;2023-03-16T04:31:51;100821.96;;;1.09;64.13
25510;BME280;13413;52.336;21.200;2023-03-16T04:34:44;100828.04;;;1.05;64.32
25510;BME280;13413;52.336;21.200;2023-03-16T04:37:37;100834.54;;;1.01;64.15
25510;BME280;13413;52.336;21.200;2023-03-16T04:40:29;100837.14;;;0.93;64.38
25510;BME280;13413;52.336;21.200;2023-03-16T04:43:21;100839.94;;;0.90;64.14
25510;BME280;13413;52.336;21.200;2023-03-16T04:46:13;100841.13;;;0.83;64.01
25510;BME280;13413;52.336;21.200;2023-03-16T04:49:05;100843.15;;;0.77;64.20
25510;BME280;13413;52.336;21.200;2023-03-16T04:51:58;100840.34;;;0.74;64.35
25510;BME280;13413;52.336;21.200;2023-03-16T04:54:50;100843.98;;;0.75;64.28
25510;BME280;13413;52.336;21.200;2023-03-16T04:57:42;100844.19;;;0.77;64.40
25510;BME280;13413;52.336;21.200;2023-03-16T05:00:34;100849.44;;;0.76;64.38
25510;BME280;13413;52.336;21.200;2023-03-16T05:03:26;100847.83;;;0.74;64.06
25510;BME280;13413;52.336;21.200;2023-03-16T05:06:19;100849.77;;;0.66;64.04
25510;BME280;13413;52.336;21.200;2023-03-16T05:09:11;100853.80;;;0.53;64.26
25510;BME280;13413;52.336;21.200;2023-03-16T05:12:03;100850.11;;;0.48;64.50
25510;BME280;13413;52.336;21.200;2023-03-16T05:14:55;100850.96;;;0.51;64.80
25510;BME280;13413;52.336;21.200;2023-03-16T05:17:47;100859.51;;;0.47;64.87
25510;BME280;13413;52.336;21.200;2023-03-16T05:20:39;100865.31;;;0.44;64.99
25510;BME280;13413;52.336;21.200;2023-03-16T05:23:31;100868.16;;;0.45;65.14
25510;BME280;13413;52.336;21.200;2023-03-16T05:26:23;100874.71;;;0.52;65.38
25510;BME280;13413;52.336;21.200;2023-03-16T05:29:15;100880.69;;;0.62;65.41
25510;BME280;13413;52.336;21.200;2023-03-16T05:32:07;100891.57;;;0.65;65.28
25510;BME280;13413;52.336;21.200;2023-03-16T05:35:00;100885.91;;;0.70;65.43
25510;BME280;13413;52.336;21.200;2023-03-16T05:37:52;100881.47;;;0.73;65.63
25510;BME280;13413;52.336;21.200;2023-03-16T05:40:44;100883.90;;;0.76;65.80
25510;BME280;13413;52.336;21.200;2023-03-16T05:43:36;100886.86;;;0.81;65.62
25510;BME280;13413;52.336;21.200;2023-03-16T05:46:28;100889.84;;;0.84;65.83
25510;BME280;13413;52.336;21.200;2023-03-16T05:49:20;100885.89;;;0.88;66.05
25510;BME280;13413;52.336;21.200;2023-03-16T05:52:12;100885.95;;;0.92;66.16
25510;BME280;13413;52.336;21.200;2023-03-16T05:55:04;100886.89;;;0.94;66.22
25510;BME280;13413;52.336;21.200;2023-03-16T05:57:57;100888.17;;;0.99;66.35
25510;BME280;13413;52.336;21.200;2023-03-16T06:00:49;100888.05;;;1.03;66.49
25510;BME280;13413;52.336;21.200;2023-03-16T06:03:41;100884.45;;;1.12;66.57
25510;BME280;13413;52.336;21.200;2023-03-16T06:06:33;100887.54;;;1.21;66.70
25510;BME280;13413;52.336;21.200;2023-03-16T06:09:25;100887.81;;;1.30;66.53
25510;BME280;13413;52.336;21.200;2023-03-16T06:12:18;100892.04;;;1.39;66.64
25510;BME280;13413;52.336;21.200;2023-03-16T06:15:10;100899.55;;;1.47;66.41
25510;BME280;13413;52.336;21.200;2023-03-16T06:18:03;100897.84;;;1.54;66.46
25510;BME280;13413;52.336;21.200;2023-03-16T06:20:55;100906.78;;;1.61;66.48
25510;BME280;13413;52.336;21.200;2023-03-16T06:23:47;100911.27;;;1.66;66.48
25510;BME280;13413;52.336;21.200;2023-03-16T06:29:31;100917.48;;;1.80;66.35
25510;BME280;13413;52.336;21.200;2023-03-16T06:32:23;100917.75;;;1.86;66.61
25510;BME280;13413;52.336;21.200;2023-03-16T06:35:16;100917.54;;;1.92;66.64
25510;BME280;13413;52.336;21.200;2023-03-16T06:38:08;100918.23;;;1.99;66.51
25510;BME280;13413;52.336;21.200;2023-03-16T06:41:00;100917.02;;;2.06;66.56
25510;BME280;13413;52.336;21.200;2023-03-16T06:43:52;100916.33;;;2.16;66.59
25510;BME280;13413;52.336;21.200;2023-03-16T06:51:47;100924.73;;;2.42;66.34
25510;BME280;13413;52.336;21.200;2023-03-16T06:54:40;100927.34;;;2.45;66.21
25510;BME280;13413;52.336;21.200;2023-03-16T06:57:33;100933.77;;;2.50;66.49
25510;BME280;13413;52.336;21.200;2023-03-16T07:00:25;100934.25;;;2.55;66.41
25510;BME280;13413;52.336;21.200;2023-03-16T07:03:17;100930.84;;;2.64;66.56
25510;BME280;13413;52.336;21.200;2023-03-16T07:06:09;100934.59;;;2.75;66.50
25510;BME280;13413;52.336;21.200;2023-03-16T07:09:01;100938.17;;;2.83;66.32
25510;BME280;13413;52.336;21.200;2023-03-16T07:11:53;100933.91;;;2.94;66.14
25510;BME280;13413;52.336;21.200;2023-03-16T07:14:45;100936.05;;;3.02;66.19
25510;BME280;13413;52.336;21.200;2023-03-16T07:17:37;100941.31;;;3.07;66.04
25510;BME280;13413;52.336;21.200;2023-03-16T07:20:30;100945.30;;;3.12;66.03
25510;BME280;13413;52.336;21.200;2023-03-16T07:23:22;100948.00;;;3.20;65.89
25510;BME280;13413;52.336;21.200;2023-03-16T07:26:14;100949.14;;;3.28;65.89
25510;BME280;13413;52.336;21.200;2023-03-16T07:29:06;100949.11;;;3.38;65.95
25510;BME280;13413;52.336;21.200;2023-03-16T07:31:58;100947.24;;;3.44;65.85
25510;BME280;13413;52.336;21.200;2023-03-16T07:34:50;100948.17;;;3.48;65.66
25510;BME280;13413;52.336;21.200;2023-03-16T07:37:42;100948.74;;;3.54;65.65
25510;BME280;13413;52.336;21.200;2023-03-16T07:40:34;100952.04;;;3.64;65.58
25510;BME280;13413;52.336;21.200;2023-03-16T07:43:26;100952.29;;;3.69;65.39
25510;BME280;13413;52.336;21.200;2023-03-16T07:46:18;100953.14;;;3.77;65.50
25510;BME280;13413;52.336;21.200;2023-03-16T07:49:10;100956.38;;;3.82;65.26
25510;BME280;13413;52.336;21.200;2023-03-16T07:52:03;100953.15;;;3.90;65.41
25510;BME280;13413;52.336;21.200;2023-03-16T07:54:59;100954.73;;;4.01;65.42
25510;BME280;13413;52.336;21.200;2023-03-16T07:57:51;100958.06;;;4.16;65.36
25510;BME280;13413;52.336;21.200;2023-03-16T08:00:43;100954.25;;;4.25;64.82
25510;BME280;13413;52.336;21.200;2023-03-16T08:03:35;100955.39;;;4.26;64.51
25510;BME280;13413;52.336;21.200;2023-03-16T08:06:27;100952.05;;;4.33;64.63
25510;BME280;13413;52.336;21.200;2023-03-16T08:09:19;100949.81;;;4.43;64.82
25510;BME280;13413;52.336;21.200;2023-03-16T08:12:11;100952.39;;;4.61;64.57
25510;BME280;13413;52.336;21.200;2023-03-16T08:15:03;100954.98;;;4.68;64.22
25510;BME280;13413;52.336;21.200;2023-03-16T08:17:56;100958.80;;;4.73;64.28
25510;BME280;13413;52.336;21.200;2023-03-16T08:20:48;100958.98;;;4.84;64.16
25510;BME280;13413;52.336;21.200;2023-03-16T08:23:40;100963.92;;;4.90;63.32
25510;BME280;13413;52.336;21.200;2023-03-16T08:26:33;100964.34;;;4.95;63.28
25510;BME280;13413;52.336;21.200;2023-03-16T08:29:25;100968.35;;;5.04;63.05
25510;BME280;13413;52.336;21.200;2023-03-16T08:32:17;100973.54;;;5.09;62.82
25510;BME280;13413;52.336;21.200;2023-03-16T08:35:10;100970.39;;;5.18;62.53
25510;BME280;13413;52.336;21.200;2023-03-16T08:38:06;100966.51;;;5.29;62.63
25510;BME280;13413;52.336;21.200;2023-03-16T08:40:59;100967.41;;;5.39;62.91
25510;BME280;13413;52.336;21.200;2023-03-16T08:43:52;100969.88;;;5.53;62.90
25510;BME280;13413;52.336;21.200;2023-03-16T08:46:44;100973.36;;;5.68;62.14
25510;BME280;13413;52.336;21.200;2023-03-16T08:49:36;100975.66;;;5.78;61.72
25510;BME280;13413;52.336;21.200;2023-03-16T08:52:29;100973.60;;;5.92;61.80
25510;BME280;13413;52.336;21.200;2023-03-16T08:55:21;100976.71;;;6.05;61.51
25510;BME280;13413;52.336;21.200;2023-03-16T08:58:13;100977.60;;;6.27;60.78
25510;BME280;13413;52.336;21.200;2023-03-16T09:01:05;100976.32;;;6.32;59.84
25510;BME280;13413;52.336;21.200;2023-03-16T09:03:57;100977.13;;;6.42;59.59
25510;BME280;13413;52.336;21.200;2023-03-16T09:11:51;100980.89;;;6.79;59.58
25510;BME280;13413;52.336;21.200;2023-03-16T09:14:43;100986.55;;;6.91;58.54
25510;BME280;13413;52.336;21.200;2023-03-16T09:17:35;100991.77;;;6.89;57.22
25510;BME280;13413;52.336;21.200;2023-03-16T09:20:28;100986.70;;;7.06;58.54
25510;BME280;13413;52.336;21.200;2023-03-16T09:23:21;100988.75;;;7.28;57.57
25510;BME280;13413;52.336;21.200;2023-03-16T09:26:14;100993.41;;;7.54;58.53
25510;BME280;13413;52.336;21.200;2023-03-16T09:29:05;100992.34;;;7.83;56.70
25510;BME280;13413;52.336;21.200;2023-03-16T09:31:57;100992.12;;;7.89;55.67
25510;BME280;13413;52.336;21.200;2023-03-16T09:34:50;100996.21;;;7.88;56.00
25510;BME280;13413;52.336;21.200;2023-03-16T09:37:42;100993.15;;;8.12;56.36
25510;BME280;13413;52.336;21.200;2023-03-16T09:40:35;100991.71;;;8.32;55.48
25510;BME280;13413;52.336;21.200;2023-03-16T09:43:31;100995.96;;;8.41;54.65
25510;BME280;13413;52.336;21.200;2023-03-16T09:46:29;100988.59;;;8.79;54.57
25510;BME280;13413;52.336;21.200;2023-03-16T09:49:23;100991.10;;;8.73;52.16
25510;BME280;13413;52.336;21.200;2023-03-16T09:52:22;100995.71;;;8.33;51.93
25510;BME280;13413;52.336;21.200;2023-03-16T09:58:11;101005.10;;;8.04;51.86
25510;BME280;13413;52.336;21.200;2023-03-16T10:01:08;101003.24;;;8.33;51.61
25510;BME280;13413;52.336;21.200;2023-03-16T10:04:10;101003.65;;;8.27;51.46
25510;BME280;13413;52.336;21.200;2023-03-16T10:07:10;101006.15;;;8.08;51.46
25510;BME280;13413;52.336;21.200;2023-03-16T10:10:13;101008.90;;;8.33;51.92
25510;BME280;13413;52.336;21.200;2023-03-16T10:13:14;101006.10;;;8.82;50.56
25510;BME280;13413;52.336;21.200;2023-03-16T10:16:09;101003.88;;;9.14;50.38
25510;BME280;13413;52.336;21.200;2023-03-16T10:19:06;101000.73;;;9.28;49.50
25510;BME280;13413;52.336;21.200;2023-03-16T10:22:01;101004.64;;;9.42;48.70
25510;BME280;13413;52.336;21.200;2023-03-16T10:25:02;101000.89;;;9.54;49.04
25510;BME280;13413;52.336;21.200;2023-03-16T10:27:58;100997.23;;;9.84;48.89
25510;BME280;13413;52.336;21.200;2023-03-16T10:30:51;101005.75;;;10.14;46.82
25510;BME280;13413;52.336;21.200;2023-03-16T10:33:44;101005.25;;;10.17;46.97
25510;BME280;13413;52.336;21.200;2023-03-16T10:36:37;101010.29;;;10.10;46.75
25510;BME280;13413;52.336;21.200;2023-03-16T10:39:35;101003.20;;;9.72;46.29
25510;BME280;13413;52.336;21.200;2023-03-16T10:42:27;101006.49;;;9.92;46.28
25510;BME280;13413;52.336;21.200;2023-03-16T10:45:22;101012.08;;;9.87;45.32
25510;BME280;13413;52.336;21.200;2023-03-16T10:48:15;101013.27;;;9.60;44.73
25510;BME280;13413;52.336;21.200;2023-03-16T10:51:10;101011.73;;;9.73;45.52
25510;BME280;13413;52.336;21.200;2023-03-16T10:54:06;101006.45;;;10.00;45.38
25510;BME280;13413;52.336;21.200;2023-03-16T10:56:58;101004.48;;;9.89;44.86
25510;BME280;13413;52.336;21.200;2023-03-16T10:59:52;101013.09;;;9.51;45.57
25510;BME280;13413;52.336;21.200;2023-03-16T11:02:45;101011.42;;;9.69;45.40
25510;BME280;13413;52.336;21.200;2023-03-16T11:05:37;101007.29;;;10.03;44.73
25510;BME280;13413;52.336;21.200;2023-03-16T11:08:31;101003.77;;;10.46;44.75
25510;BME280;13413;52.336;21.200;2023-03-16T11:11:25;101001.27;;;10.83;44.15
25510;BME280;13413;52.336;21.200;2023-03-16T11:14:20;100996.88;;;11.19;43.71
25510;BME280;13413;52.336;21.200;2023-03-16T11:17:13;101005.83;;;11.21;42.48
25510;BME280;13413;52.336;21.200;2023-03-16T11:20:08;101013.84;;;10.44;42.58
25510;BME280;13413;52.336;21.200;2023-03-16T11:23:02;101008.45;;;10.03;43.91
25510;BME280;13413;52.336;21.200;2023-03-16T11:32:16;101009.34;;;10.58;43.45
25510;BME280;13413;52.336;21.200;2023-03-16T11:35:14;101000.14;;;11.31;43.14
25510;BME280;13413;52.336;21.200;2023-03-16T11:38:09;101003.05;;;11.66;40.78
25510;BME280;13413;52.336;21.200;2023-03-16T11:41:03;101003.63;;;12.07;41.37
25510;BME280;13413;52.336;21.200;2023-03-16T11:43:55;101002.77;;;12.06;41.13
25510;BME280;13413;52.336;21.200;2023-03-16T11:46:50;101004.15;;;12.11;40.12
25510;BME280;13413;52.336;21.200;2023-03-16T11:49:56;101005.87;;;12.03;40.73
25510;BME280;13413;52.336;21.200;2023-03-16T11:52:53;101004.63;;;11.87;38.53
25510;BME280;13413;52.336;21.200;2023-03-16T11:55:52;101002.98;;;11.63;38.58
25510;BME280;13413;52.336;21.200;2023-03-16T11:58:54;101000.52;;;10.88;38.77
25510;BME280;13413;52.336;21.200;2023-03-16T12:01:55;101002.66;;;10.49;39.39
25510;BME280;13413;52.336;21.200;2023-03-16T12:04:51;101004.31;;;9.95;38.64
25510;BME280;13413;52.336;21.200;2023-03-16T12:07:47;101005.69;;;9.58;39.26
25510;BME280;13413;52.336;21.200;2023-03-16T12:10:43;101002.08;;;9.34;40.48
25510;BME280;13413;52.336;21.200;2023-03-16T12:13:48;101005.09;;;9.25;40.75
25510;BME280;13413;52.336;21.200;2023-03-16T12:16:41;101006.48;;;9.00;41.45
25510;BME280;13413;52.336;21.200;2023-03-16T12:19:38;101009.65;;;8.86;41.93
25510;BME280;13413;52.336;21.200;2023-03-16T12:22:32;101011.20;;;8.75;42.55
25510;BME280;13413;52.336;21.200;2023-03-16T12:25:25;101012.80;;;8.73;42.72
25510;BME280;13413;52.336;21.200;2023-03-16T12:28:23;101020.50;;;8.79;43.05
25510;BME280;13413;52.336;21.200;2023-03-16T12:31:15;101023.83;;;8.71;43.38
25510;BME280;13413;52.336;21.200;2023-03-16T12:34:11;101021.84;;;8.75;43.67
25510;BME280;13413;52.336;21.200;2023-03-16T12:37:10;101028.11;;;8.74;43.81
25510;BME280;13413;52.336;21.200;2023-03-16T12:40:05;101026.09;;;8.74;43.96
25510;BME280;13413;52.336;21.200;2023-03-16T12:43:01;101024.70;;;8.81;44.21
25510;BME280;13413;52.336;21.200;2023-03-16T12:45:57;101023.02;;;8.90;44.54
25510;BME280;13413;52.336;21.200;2023-03-16T12:48:52;101024.45;;;8.90;44.67
25510;BME280;13413;52.336;21.200;2023-03-16T12:51:47;101022.90;;;8.85;45.20
25510;BME280;13413;52.336;21.200;2023-03-16T12:58:00;101027.34;;;8.69;45.69
25510;BME280;13413;52.336;21.200;2023-03-16T13:00:56;101027.84;;;8.66;45.68
25510;BME280;13413;52.336;21.200;2023-03-16T13:03:48;101032.69;;;8.61;45.39
25510;BME280;13413;52.336;21.200;2023-03-16T13:06:42;101036.63;;;8.48;44.96
25510;BME280;13413;52.336;21.200;2023-03-16T13:09:35;101038.83;;;8.39;45.11
25510;BME280;13413;52.336;21.200;2023-03-16T13:12:31;101038.65;;;8.61;44.95
25510;BME280;13413;52.336;21.200;2023-03-16T13:15:27;101034.89;;;9.16;44.75
25510;BME280;13413;52.336;21.200;2023-03-16T13:18:22;101032.75;;;9.38;44.64
25510;BME280;13413;52.336;21.200;2023-03-16T13:26:47;101041.88;;;8.90;45.41
25510;BME280;13413;52.336;21.200;2023-03-16T13:29:40;101048.95;;;8.60;45.90
25510;BME280;13413;52.336;21.200;2023-03-16T13:32:43;101048.02;;;8.44;46.55
25510;BME280;13413;52.336;21.200;2023-03-16T13:35:36;101050.40;;;8.40;46.53
25510;BME280;13413;52.336;21.200;2023-03-16T13:38:29;101044.50;;;8.41;46.60
25510;BME280;13413;52.336;21.200;2023-03-16T13:41:21;101046.74;;;8.35;46.49
25510;BME280;13413;52.336;21.200;2023-03-16T13:44:14;101048.92;;;8.29;46.54
25510;BME280;13413;52.336;21.200;2023-03-16T13:47:07;101051.36;;;8.35;46.29
25510;BME280;13413;52.336;21.200;2023-03-16T13:50:04;101053.13;;;8.39;45.94
25510;BME280;13413;52.336;21.200;2023-03-16T13:52:57;101059.56;;;8.28;45.84
25510;BME280;13413;52.336;21.200;2023-03-16T13:56:12;101055.40;;;8.24;46.11
25510;BME280;13413;52.336;21.200;2023-03-16T13:59:07;101060.20;;;8.20;46.18
25510;BME280;13413;52.336;21.200;2023-03-16T14:04:52;101059.39;;;8.17;46.27
25510;BME280;13413;52.336;21.200;2023-03-16T14:07:45;101058.53;;;8.15;46.30
25510;BME280;13413;52.336;21.200;2023-03-16T14:10:37;101056.84;;;8.14;46.52
25510;BME280;13413;52.336;21.200;2023-03-16T14:13:32;101056.14;;;8.14;46.51
25510;BME280;13413;52.336;21.200;2023-03-16T14:16:26;101059.20;;;8.15;46.68
25510;BME280;13413;52.336;21.200;2023-03-16T14:19:39;101056.16;;;8.20;46.69
25510;BME280;13413;52.336;21.200;2023-03-16T14:22:33;101058.27;;;8.27;46.71
25510;BME280;13413;52.336;21.200;2023-03-16T14:25:25;101055.30;;;8.40;46.69
25510;BME280;13413;52.336;21.200;2023-03-16T14:28:19;101056.36;;;8.46;46.53
25510;BME280;13413;52.336;21.200;2023-03-16T14:31:12;101053.01;;;8.44;46.34
25510;BME280;13413;52.336;21.200;2023-03-16T14:34:20;101054.52;;;8.43;46.15
25510;BME280;13413;52.336;21.200;2023-03-16T14:37:13;101057.90;;;8.37;46.21
25510;BME280;13413;52.336;21.200;2023-03-16T14:40:17;101056.84;;;8.35;45.83
25510;BME280;13413;52.336;21.200;2023-03-16T14:43:11;101056.50;;;8.25;45.76
25510;BME280;13413;52.336;21.200;2023-03-16T14:46:04;101057.10;;;8.19;46.03
25510;BME280;13413;52.336;21.200;2023-03-16T14:49:00;101058.63;;;8.14;45.99
25510;BME280;13413;52.336;21.200;2023-03-16T14:51:53;101060.08;;;8.10;46.13
25510;BME280;13413;52.336;21.200;2023-03-16T14:54:46;101057.45;;;8.04;46.11
25510;BME280;13413;52.336;21.200;2023-03-16T14:57:39;101061.06;;;7.99;46.12
25510;BME280;13413;52.336;21.200;2023-03-16T15:00:32;101063.05;;;7.93;46.17
25510;BME280;13413;52.336;21.200;2023-03-16T15:03:28;101064.78;;;7.92;46.51
25510;BME280;13413;52.336;21.200;2023-03-16T15:06:21;101067.30;;;7.97;46.62
25510;BME280;13413;52.336;21.200;2023-03-16T15:09:18;101069.81;;;8.04;46.75
25510;BME280;13413;52.336;21.200;2023-03-16T15:12:18;101073.14;;;8.05;46.61
25510;BME280;13413;52.336;21.200;2023-03-16T15:18:17;101068.48;;;8.05;46.77
25510;BME280;13413;52.336;21.200;2023-03-16T15:21:10;101075.60;;;8.04;46.67
25510;BME280;13413;52.336;21.200;2023-03-16T15:24:04;101079.50;;;7.98;46.73
25510;BME280;13413;52.336;21.200;2023-03-16T15:26:59;101078.27;;;8.00;47.13
25510;BME280;13413;52.336;21.200;2023-03-16T15:29:52;101077.46;;;8.05;47.09
25510;BME280;13413;52.336;21.200;2023-03-16T15:32:44;101078.66;;;8.07;46.87
25510;BME280;13413;52.336;21.200;2023-03-16T15:35:36;101079.15;;;8.05;47.05
25510;BME280;13413;52.336;21.200;2023-03-16T15:38:30;101080.30;;;8.03;46.86
25510;BME280;13413;52.336;21.200;2023-03-16T15:51:34;101092.73;;;7.72;48.48
25510;BME280;13413;52.336;21.200;2023-03-16T15:54:25;101096.21;;;7.68;48.66
25510;BME280;13413;52.336;21.200;2023-03-16T15:57:17;101097.77;;;7.70;48.96
25510;BME280;13413;52.336;21.200;2023-03-16T16:00:15;101100.79;;;7.64;48.98
25510;BME280;13413;52.336;21.200;2023-03-16T16:03:12;101106.09;;;7.65;49.33
25510;BME280;13413;52.336;21.200;2023-03-16T16:06:08;101105.48;;;7.66;49.41
25510;BME280;13413;52.336;21.200;2023-03-16T16:08:59;101109.65;;;7.61;49.51